Rechercher aéroport 
image banner adimage banner adimage banner ad
image banner ad

CN13 - Borges - Clarksburg

Situé à Clarksburg, United States

ICAO - CN13, IATA -

Données fournies par Airmate  

Information générale

Coordonnées: N38°26'36" W121°30'32"
Élévation : 12 feet MSL.
Variation magnétique : 16° East
Voir autres Aéroports à California

Données opérationnelles

Special qualification required
Heure actuelle UTC:
Heure actuelle locale:
Météo à : KSAC - Sacramento Executive ( 8 km )
METAR: KSAC 251153Z AUTO 18008KT 10SM CLR 16/11 A2988 RMK AO2 SLP117 T01610111 10217 20161 53005
TAF: KSAC 251120Z 2512/2612 18005KT P6SM SCT200 FM260000 21010G17KT P6SM FEW150 BKN250
Voir NOTAMs / SUP AIP / TFR affectant cet aéroport [VIEW]
Fréquences de communication: [VIEW]

Pistes:

Identifiant RWYQFULongueur (ft)Largeur (ft)SurfaceLDA (ft)
09226090GRASS
27226090GRASS

Coordonnées de l'aéroport

Adresse: Clarksburg United States

Vue satellite de CN13